createdAt,value
2022-07-29T00:00:07.438Z,1015.92
2022-07-29T00:00:38.643Z,1015.81
2022-07-29T00:01:08.558Z,1015.81
2022-07-29T00:01:40.522Z,1015.81
2022-07-29T00:02:10.527Z,1015.81
2022-07-29T00:02:41.846Z,1015.92
2022-07-29T00:03:12.783Z,1015.92
2022-07-29T00:03:43.694Z,1015.81
2022-07-29T00:04:14.672Z,1015.81
2022-07-29T00:04:48.457Z,1015.61
2022-07-29T00:05:17.055Z,1015.61
2022-07-29T00:05:47.780Z,1015.98
2022-07-29T00:06:22.041Z,1015.81
2022-07-29T00:06:49.688Z,1015.81
2022-07-29T00:07:23.035Z,1015.71
2022-07-29T00:07:51.684Z,1015.71
2022-07-29T00:08:22.650Z,1015.92
2022-07-29T00:08:53.844Z,1015.92
2022-07-29T00:09:24.652Z,1015.92
2022-07-29T00:09:55.674Z,1015.92
2022-07-29T00:10:27.172Z,1015.92
2022-07-29T00:10:57.128Z,1015.92
2022-07-29T00:11:31.010Z,1015.92
2022-07-29T00:11:59.674Z,1015.92
2022-07-29T00:12:30.434Z,1015.98
2022-07-29T00:13:01.449Z,1015.98
2022-07-29T00:13:33.083Z,1015.81
2022-07-29T00:14:03.539Z,1015.81
2022-07-29T00:14:34.749Z,1015.98
2022-07-29T00:15:05.696Z,1015.98
2022-07-29T00:15:36.652Z,1015.81
2022-07-29T00:16:07.273Z,1015.81
2022-07-29T00:16:38.647Z,1015.81
2022-07-29T00:17:09.668Z,1015.81
2022-07-29T00:17:40.842Z,1015.81
2022-07-29T00:18:15.163Z,1015.81
2022-07-29T00:18:42.762Z,1015.92
2022-07-29T00:19:13.574Z,1015.92
2022-07-29T00:19:45.702Z,1015.81
2022-07-29T00:20:15.974Z,1015.81
2022-07-29T00:20:49.893Z,1015.71
2022-07-29T00:21:20.154Z,1015.61
2022-07-29T00:21:51.729Z,1015.61
2022-07-29T00:22:19.641Z,1015.71
2022-07-29T00:22:50.953Z,1015.71
2022-07-29T00:23:23.067Z,1015.71
2022-07-29T00:23:52.363Z,1015.71
2022-07-29T00:24:23.933Z,1015.61
2022-07-29T00:24:54.486Z,1015.61
2022-07-29T00:25:26.004Z,1015.51
2022-07-29T00:25:56.803Z,1015.51
2022-07-29T00:26:33.356Z,1015.41
2022-07-29T00:26:58.210Z,1015.41
2022-07-29T00:27:29.733Z,1015.51
2022-07-29T00:28:03.567Z,1015.51
2022-07-29T00:28:31.728Z,1015.61
2022-07-29T00:29:32.280Z,1015.61
2022-07-29T00:30:05.488Z,1015.71
2022-07-29T00:30:36.794Z,1015.51
2022-07-29T00:31:09.386Z,1015.51
2022-07-29T00:31:37.939Z,1015.41
2022-07-29T00:32:09.794Z,1015.41
2022-07-29T00:32:39.729Z,1015.51
2022-07-29T00:33:11.554Z,1015.51
2022-07-29T00:33:41.768Z,1015.20
2022-07-29T00:34:12.349Z,1015.20
2022-07-29T00:34:43.723Z,1015.51
2022-07-29T00:35:15.266Z,1015.51
2022-07-29T00:35:46.179Z,1015.51
2022-07-29T00:36:16.687Z,1015.51
2022-07-29T00:36:47.688Z,1015.41
2022-07-29T00:37:18.974Z,1015.41
2022-07-29T00:37:50.634Z,1015.41
2022-07-29T00:38:20.648Z,1015.61
2022-07-29T00:38:54.134Z,1015.61
2022-07-29T00:39:22.755Z,1015.41
2022-07-29T00:39:53.684Z,1015.41
2022-07-29T00:40:24.693Z,1015.41
2022-07-29T00:40:55.448Z,1015.41
2022-07-29T00:41:26.723Z,1015.51
2022-07-29T00:41:58.127Z,1015.51
2022-07-29T00:42:28.849Z,1015.41
2022-07-29T00:42:59.684Z,1015.41
2022-07-29T00:43:30.214Z,1015.31
2022-07-29T00:44:01.396Z,1015.31
2022-07-29T00:44:32.290Z,1015.41
2022-07-29T00:45:04.114Z,1015.41
2022-07-29T00:45:34.643Z,1015.31
2022-07-29T00:46:06.248Z,1015.31
2022-07-29T00:46:36.926Z,1015.41
2022-07-29T00:47:07.787Z,1015.41
2022-07-29T00:47:38.875Z,1015.20
2022-07-29T00:48:09.764Z,1015.20
2022-07-29T00:48:40.367Z,1015.31
2022-07-29T00:49:12.135Z,1015.31
2022-07-29T00:49:42.803Z,1015.41
2022-07-29T00:50:14.162Z,1015.41
2022-07-29T00:50:45.098Z,1015.41
2022-07-29T00:51:15.935Z,1015.41
2022-07-29T00:51:46.498Z,1015.31
2022-07-29T00:52:17.973Z,1015.31
2022-07-29T00:52:48.661Z,1015.20
2022-07-29T00:53:19.848Z,1015.51
2022-07-29T00:53:50.683Z,1015.51
2022-07-29T00:54:21.314Z,1015.20
2022-07-29T00:54:52.843Z,1015.20
2022-07-29T00:55:24.327Z,1015.20
2022-07-29T00:55:54.849Z,1015.20
2022-07-29T00:56:26.048Z,1015.20
2022-07-29T00:56:56.842Z,1015.20
2022-07-29T00:57:27.926Z,1015.20
2022-07-29T00:58:01.373Z,1015.20
2022-07-29T00:58:29.814Z,1015.20
2022-07-29T00:59:00.929Z,1015.20
2022-07-29T00:59:34.917Z,1015.20
2022-07-29T01:00:03.534Z,1015.20
2022-07-29T01:00:33.824Z,1015.20
2022-07-29T01:01:04.922Z,1015.20
2022-07-29T01:01:35.960Z,1015.20
2022-07-29T01:02:06.930Z,1015.20
2022-07-29T01:02:38.126Z,1015.20
2022-07-29T01:03:08.874Z,1015.20
2022-07-29T01:03:40.523Z,1015.20
2022-07-29T01:04:11.168Z,1015.20
2022-07-29T01:04:42.528Z,1015.20
2022-07-29T01:05:13.208Z,1015.20
2022-07-29T01:05:50.070Z,1015.41
2022-07-29T01:06:15.085Z,1015.41
2022-07-29T01:06:45.932Z,1015.20
2022-07-29T01:07:16.555Z,1015.20
2022-07-29T01:07:47.631Z,1015.31
2022-07-29T01:08:18.962Z,1015.31
2022-07-29T01:08:49.838Z,1015.00
2022-07-29T01:09:34.361Z,1015.20
2022-07-29T01:09:54.448Z,1015.20
2022-07-29T01:10:23.290Z,1015.41
2022-07-29T01:10:54.047Z,1015.41
2022-07-29T01:11:25.171Z,1015.10
2022-07-29T01:11:55.802Z,1015.10
2022-07-29T01:12:29.403Z,1015.10
2022-07-29T01:12:58.168Z,1015.10
2022-07-29T01:13:28.836Z,1015.10
2022-07-29T01:14:00.008Z,1015.10
2022-07-29T01:14:30.847Z,1015.20
2022-07-29T01:15:02.252Z,1015.20
2022-07-29T01:15:33.172Z,1015.31
2022-07-29T01:16:03.938Z,1015.31
2022-07-29T01:16:35.065Z,1015.00
2022-07-29T01:17:05.886Z,1015.00
2022-07-29T01:17:36.917Z,1015.31
2022-07-29T01:18:07.727Z,1015.31
2022-07-29T01:18:38.853Z,1015.10
2022-07-29T01:19:10.005Z,1015.10
2022-07-29T01:19:40.802Z,1015.00
2022-07-29T01:20:12.387Z,1015.00
2022-07-29T01:20:43.370Z,1015.20
2022-07-29T01:21:14.204Z,1015.20
2022-07-29T01:21:45.336Z,1015.10
2022-07-29T01:22:19.007Z,1015.10
2022-07-29T01:22:46.768Z,1015.31
2022-07-29T01:23:17.923Z,1015.31
2022-07-29T01:23:48.926Z,1015.00
2022-07-29T01:24:19.523Z,1015.31
2022-07-29T01:24:50.972Z,1015.31
2022-07-29T01:25:22.167Z,1015.20
2022-07-29T01:25:55.931Z,1015.20
2022-07-29T01:26:24.146Z,1015.00
2022-07-29T01:26:55.306Z,1015.00
2022-07-29T01:27:26.162Z,1014.80
2022-07-29T01:27:56.854Z,1014.80
2022-07-29T01:28:27.373Z,1015.31
2022-07-29T01:29:00.208Z,1015.31
2022-07-29T01:29:38.965Z,1015.10
2022-07-29T01:30:01.647Z,1015.10
2022-07-29T01:30:32.528Z,1015.20
2022-07-29T01:31:02.922Z,1015.20
2022-07-29T01:31:36.487Z,1015.20
2022-07-29T01:32:05.242Z,1015.20
2022-07-29T01:32:37.166Z,1015.10
2022-07-29T01:33:06.847Z,1015.10
2022-07-29T01:33:38.043Z,1014.90
2022-07-29T01:34:09.212Z,1014.90
2022-07-29T01:34:40.051Z,1015.10
2022-07-29T01:35:11.806Z,1015.10
2022-07-29T01:35:42.255Z,1015.00
2022-07-29T01:36:16.848Z,1015.00
2022-07-29T01:36:44.923Z,1015.00
2022-07-29T01:37:14.968Z,1015.00
2022-07-29T01:37:45.482Z,1014.80
2022-07-29T01:38:16.441Z,1014.80
2022-07-29T01:38:48.002Z,1015.00
2022-07-29T01:39:19.114Z,1015.00
2022-07-29T01:39:52.547Z,1014.80
2022-07-29T01:40:21.913Z,1015.00
2022-07-29T01:40:52.258Z,1015.00
2022-07-29T01:41:23.248Z,1015.00
2022-07-29T01:41:54.082Z,1015.00
2022-07-29T01:42:25.038Z,1014.90
2022-07-29T01:42:55.923Z,1014.90
2022-07-29T01:43:26.883Z,1014.80
2022-07-29T01:43:58.003Z,1014.80
2022-07-29T01:44:28.928Z,1015.00
2022-07-29T01:45:00.082Z,1015.00
2022-07-29T01:45:31.573Z,1015.00
2022-07-29T01:46:05.006Z,1015.00
2022-07-29T01:46:34.917Z,1014.80
2022-07-29T01:47:04.464Z,1014.80
2022-07-29T01:47:35.738Z,1014.59
2022-07-29T01:48:06.116Z,1014.59
2022-07-29T01:48:37.061Z,1014.90
2022-07-29T01:49:07.790Z,1014.90
2022-07-29T01:49:38.967Z,1014.90
2022-07-29T01:50:10.127Z,1014.90
2022-07-29T01:50:41.279Z,1014.80
2022-07-29T01:51:18.050Z,1014.80
2022-07-29T01:51:42.957Z,1014.90
2022-07-29T01:52:14.054Z,1014.90
2022-07-29T01:52:44.963Z,1014.70
2022-07-29T01:53:15.957Z,1014.70
2022-07-29T01:53:47.113Z,1014.80
2022-07-29T01:54:18.100Z,1014.80
2022-07-29T01:54:51.813Z,1014.90
2022-07-29T01:55:20.446Z,1014.90
2022-07-29T01:55:50.724Z,1014.90
2022-07-29T01:56:21.835Z,1014.70
2022-07-29T01:56:52.851Z,1014.70
2022-07-29T01:57:27.087Z,1015.00
2022-07-29T01:57:55.008Z,1015.00
2022-07-29T01:58:25.794Z,1014.70
2022-07-29T01:58:56.881Z,1014.70
2022-07-29T01:59:30.568Z,1014.80
2022-07-29T01:59:59.052Z,1014.80
2022-07-29T02:00:31.253Z,1014.49
2022-07-29T02:01:00.810Z,1014.49
2022-07-29T02:01:31.950Z,1014.70
2022-07-29T02:02:03.147Z,1014.70
2022-07-29T02:02:35.874Z,1014.70
2022-07-29T02:03:08.499Z,1014.70
2022-07-29T02:03:36.416Z,1014.49
2022-07-29T02:04:06.927Z,1014.49
2022-07-29T02:04:38.168Z,1014.59
2022-07-29T02:05:09.286Z,1014.59
2022-07-29T02:05:40.441Z,1014.70
2022-07-29T02:06:11.207Z,1014.70
2022-07-29T02:06:42.847Z,1014.80
2022-07-29T02:07:12.833Z,1014.80
2022-07-29T02:07:45.166Z,1014.80
2022-07-29T02:08:15.453Z,1014.80
2022-07-29T02:08:45.594Z,1014.80
2022-07-29T02:09:17.084Z,1014.80
2022-07-29T02:09:51.013Z,1014.70
2022-07-29T02:10:18.984Z,1014.70
2022-07-29T02:10:50.280Z,1014.49
2022-07-29T02:11:21.208Z,1014.59
2022-07-29T02:11:52.047Z,1014.59
2022-07-29T02:12:23.001Z,1014.70
2022-07-29T02:12:54.090Z,1014.70
2022-07-29T02:13:24.972Z,1014.59
2022-07-29T02:13:55.976Z,1014.59
2022-07-29T02:14:26.727Z,1014.80
2022-07-29T02:15:02.092Z,1014.80
2022-07-29T02:15:29.641Z,1014.59
2022-07-29T02:16:01.399Z,1014.59
2022-07-29T02:16:31.328Z,1014.70
2022-07-29T02:17:02.202Z,1014.70
2022-07-29T02:17:38.864Z,1014.49
2022-07-29T02:18:03.833Z,1014.49
2022-07-29T02:18:38.255Z,1014.70
2022-07-29T02:19:06.013Z,1014.70
2022-07-29T02:19:36.883Z,1014.59
2022-07-29T02:20:11.454Z,1014.59
2022-07-29T02:20:39.034Z,1014.59
2022-07-29T02:21:15.147Z,1014.59
2022-07-29T02:21:41.073Z,1014.49
2022-07-29T02:22:12.292Z,1014.49
2022-07-29T02:22:43.367Z,1014.59
2022-07-29T02:23:13.966Z,1014.59
2022-07-29T02:23:50.857Z,1014.59
2022-07-29T02:24:16.753Z,1014.59
2022-07-29T02:24:46.608Z,1014.59
2022-07-29T02:25:20.247Z,1014.29
2022-07-29T02:25:49.086Z,1014.29
2022-07-29T02:26:20.250Z,1014.59
2022-07-29T02:26:51.155Z,1014.59
2022-07-29T02:27:22.082Z,1014.80
2022-07-29T02:27:53.152Z,1014.80
2022-07-29T02:28:27.051Z,1014.59
2022-07-29T02:28:54.851Z,1014.59
2022-07-29T02:29:26.287Z,1014.39
2022-07-29T02:29:57.128Z,1014.39
2022-07-29T02:30:29.121Z,1014.59
2022-07-29T02:30:59.321Z,1014.59
2022-07-29T02:31:30.418Z,1014.59
2022-07-29T02:32:00.922Z,1014.59
2022-07-29T02:32:32.208Z,1014.49
2022-07-29T02:33:03.081Z,1014.49
2022-07-29T02:33:40.066Z,1014.80
2022-07-29T02:34:05.132Z,1014.80
2022-07-29T02:34:35.887Z,1014.39
2022-07-29T02:35:07.407Z,1014.39
2022-07-29T02:35:41.891Z,1014.59
2022-07-29T02:36:08.606Z,1014.59
2022-07-29T02:36:40.266Z,1014.39
2022-07-29T02:37:11.349Z,1014.39
2022-07-29T02:37:42.167Z,1014.39
2022-07-29T02:38:13.722Z,1014.39
2022-07-29T02:38:47.247Z,1014.59
2022-07-29T02:39:15.768Z,1014.59
2022-07-29T02:39:46.073Z,1014.49
2022-07-29T02:40:17.332Z,1014.49
2022-07-29T02:40:48.086Z,1014.39
2022-07-29T02:41:18.974Z,1014.39
2022-07-29T02:41:49.967Z,1014.70
2022-07-29T02:42:21.169Z,1014.39
2022-07-29T02:42:52.287Z,1014.39
2022-07-29T02:43:24.252Z,1014.39
2022-07-29T02:43:54.242Z,1014.39
2022-07-29T02:44:32.625Z,1014.49
2022-07-29T02:44:59.248Z,1014.49
2022-07-29T02:45:27.926Z,1014.39
2022-07-29T02:45:58.365Z,1014.39
2022-07-29T02:46:32.056Z,1014.39
2022-07-29T02:46:59.755Z,1014.39
2022-07-29T02:47:31.213Z,1014.49
2022-07-29T02:48:05.322Z,1014.49
2022-07-29T02:48:32.654Z,1014.59
2022-07-29T02:49:04.514Z,1014.59
2022-07-29T02:49:35.793Z,1014.59
2022-07-29T02:50:06.850Z,1014.59
2022-07-29T02:50:37.802Z,1014.49
2022-07-29T02:51:07.929Z,1014.49
2022-07-29T02:51:41.524Z,1014.49
2022-07-29T02:52:12.647Z,1014.49
2022-07-29T02:52:41.042Z,1014.39
2022-07-29T02:53:12.305Z,1014.39
2022-07-29T02:53:43.512Z,1014.49
2022-07-29T02:54:14.261Z,1014.49
2022-07-29T02:54:45.473Z,1014.49
2022-07-29T02:55:16.923Z,1014.49
2022-07-29T02:55:48.128Z,1014.49
2022-07-29T02:56:18.113Z,1014.49
2022-07-29T02:56:48.927Z,1014.39
2022-07-29T02:57:20.280Z,1014.39
2022-07-29T02:57:54.133Z,1014.39
2022-07-29T02:58:23.521Z,1014.49
2022-07-29T02:58:55.732Z,1014.49
2022-07-29T02:59:24.489Z,1014.39
2022-07-29T02:59:55.326Z,1014.39
2022-07-29T03:00:30.140Z,1014.29
2022-07-29T03:00:58.243Z,1014.29
2022-07-29T03:01:28.264Z,1014.29
2022-07-29T03:01:58.805Z,1014.29
2022-07-29T03:02:29.807Z,1014.39
2022-07-29T03:03:04.362Z,1014.39
2022-07-29T03:03:32.172Z,1014.29
2022-07-29T03:04:02.847Z,1014.29
2022-07-29T03:04:34.286Z,1014.59
2022-07-29T03:05:07.914Z,1014.59
2022-07-29T03:05:36.204Z,1014.49
2022-07-29T03:06:10.287Z,1014.49
2022-07-29T03:06:39.089Z,1014.49
2022-07-29T03:07:08.727Z,1014.49
2022-07-29T03:07:39.953Z,1014.39
2022-07-29T03:08:11.412Z,1014.39
2022-07-29T03:08:45.010Z,1014.49
2022-07-29T03:09:13.792Z,1014.49
2022-07-29T03:09:47.286Z,1014.49
2022-07-29T03:10:15.962Z,1014.49
2022-07-29T03:10:48.361Z,1014.29
2022-07-29T03:11:20.009Z,1014.59
2022-07-29T03:11:50.351Z,1014.59
2022-07-29T03:12:19.193Z,1014.59
2022-07-29T03:12:50.593Z,1014.49
2022-07-29T03:13:21.692Z,1014.49
2022-07-29T03:13:52.431Z,1014.49
2022-07-29T03:14:23.593Z,1014.39
2022-07-29T03:14:54.253Z,1014.39
2022-07-29T03:15:26.053Z,1014.19
2022-07-29T03:15:56.427Z,1014.19
2022-07-29T03:16:28.944Z,1014.39
2022-07-29T03:16:57.882Z,1014.39
2022-07-29T03:17:29.048Z,1014.39
2022-07-29T03:18:00.333Z,1014.39
2022-07-29T03:18:31.317Z,1014.49
2022-07-29T03:19:02.246Z,1014.49
2022-07-29T03:19:33.412Z,1014.29
2022-07-29T03:20:04.993Z,1014.29
2022-07-29T03:20:35.253Z,1014.29
2022-07-29T03:21:06.346Z,1014.29
2022-07-29T03:21:38.192Z,1014.49
2022-07-29T03:22:08.649Z,1014.49
2022-07-29T03:22:39.369Z,1014.49
2022-07-29T03:23:10.409Z,1014.49
2022-07-29T03:23:40.809Z,1014.19
2022-07-29T03:24:12.282Z,1014.19
2022-07-29T03:24:43.153Z,1014.39
2022-07-29T03:25:14.813Z,1014.39
2022-07-29T03:25:45.281Z,1014.29
2022-07-29T03:26:16.575Z,1014.29
2022-07-29T03:26:47.450Z,1014.59
2022-07-29T03:27:18.371Z,1014.59
2022-07-29T03:27:49.725Z,1014.29
2022-07-29T03:28:20.892Z,1014.29
2022-07-29T03:28:51.524Z,1014.29
2022-07-29T03:29:23.052Z,1014.29
2022-07-29T03:29:53.326Z,1014.29
2022-07-29T03:30:24.571Z,1014.49
2022-07-29T03:30:55.481Z,1014.49
2022-07-29T03:31:26.243Z,1014.49
2022-07-29T03:31:57.049Z,1014.49
2022-07-29T03:32:28.386Z,1014.39
2022-07-29T03:32:59.595Z,1014.39
2022-07-29T03:33:30.728Z,1014.39
2022-07-29T03:34:01.450Z,1014.39
2022-07-29T03:34:32.292Z,1014.49
2022-07-29T03:35:06.326Z,1014.49
2022-07-29T03:35:34.246Z,1014.39
2022-07-29T03:36:05.487Z,1014.39
2022-07-29T03:36:37.593Z,1014.49
2022-07-29T03:37:07.275Z,1014.49
2022-07-29T03:37:38.372Z,1014.29
2022-07-29T03:38:09.324Z,1014.29
2022-07-29T03:38:43.168Z,1014.39
2022-07-29T03:39:11.565Z,1014.39
2022-07-29T03:39:42.286Z,1014.39
2022-07-29T03:40:13.712Z,1014.39
2022-07-29T03:40:44.344Z,1014.39
2022-07-29T03:41:25.484Z,1014.49
2022-07-29T03:41:49.286Z,1014.49
2022-07-29T03:42:19.806Z,1014.49
2022-07-29T03:42:48.190Z,1014.39
2022-07-29T03:43:20.488Z,1014.39
2022-07-29T03:43:50.451Z,1014.39
2022-07-29T03:44:21.087Z,1014.39
2022-07-29T03:44:52.226Z,1014.39
2022-07-29T03:45:27.080Z,1014.39
2022-07-29T03:45:54.499Z,1014.39
2022-07-29T03:46:25.410Z,1014.29
2022-07-29T03:46:56.006Z,1014.29
2022-07-29T03:47:43.438Z,1014.29
2022-07-29T03:48:00.995Z,1014.29
2022-07-29T03:48:29.835Z,1014.19
2022-07-29T03:49:00.500Z,1014.19
2022-07-29T03:49:31.492Z,1014.19
2022-07-29T03:50:02.916Z,1014.19
2022-07-29T03:50:33.386Z,1014.29
2022-07-29T03:51:04.685Z,1014.29
2022-07-29T03:51:35.512Z,1014.39
2022-07-29T03:52:08.391Z,1014.39
2022-07-29T03:52:37.278Z,1014.39
2022-07-29T03:53:08.533Z,1014.39
2022-07-29T03:53:39.807Z,1014.49
2022-07-29T03:54:10.526Z,1014.49
2022-07-29T03:54:41.694Z,1014.59
2022-07-29T03:55:13.112Z,1014.59
2022-07-29T03:55:43.722Z,1014.39
2022-07-29T03:56:14.011Z,1014.39
2022-07-29T03:56:48.252Z,1014.49
2022-07-29T03:57:16.209Z,1014.49
2022-07-29T03:57:47.771Z,1014.59
2022-07-29T03:58:18.682Z,1014.59
2022-07-29T03:58:49.487Z,1014.29
2022-07-29T03:59:20.428Z,1014.39
2022-07-29T03:59:51.290Z,1014.39
2022-07-29T04:00:23.329Z,1014.59
2022-07-29T04:00:53.637Z,1014.59
2022-07-29T04:01:24.144Z,1014.49
2022-07-29T04:01:55.689Z,1014.49
2022-07-29T04:02:30.509Z,1014.29
2022-07-29T04:02:59.062Z,1014.29
2022-07-29T04:03:28.540Z,1014.49
2022-07-29T04:03:59.563Z,1014.49
2022-07-29T04:04:30.793Z,1014.39
2022-07-29T04:05:01.696Z,1014.39
2022-07-29T04:05:32.612Z,1014.49
2022-07-29T04:06:03.197Z,1014.49
2022-07-29T04:06:34.521Z,1014.49
2022-07-29T04:07:05.526Z,1014.49
2022-07-29T04:07:36.732Z,1014.59
2022-07-29T04:08:07.607Z,1014.59
2022-07-29T04:08:38.727Z,1014.59
2022-07-29T04:09:09.837Z,1014.59
2022-07-29T04:09:40.567Z,1014.90
2022-07-29T04:10:12.124Z,1014.90
2022-07-29T04:10:42.633Z,1014.49
2022-07-29T04:11:13.408Z,1014.49
2022-07-29T04:12:03.566Z,1014.59
2022-07-29T04:12:15.487Z,1014.59
2022-07-29T04:12:48.857Z,1014.39
2022-07-29T04:13:17.470Z,1014.39
2022-07-29T04:13:50.506Z,1014.70
2022-07-29T04:14:19.601Z,1014.70
2022-07-29T04:14:51.406Z,1014.80
2022-07-29T04:15:22.610Z,1014.80
2022-07-29T04:15:52.547Z,1014.80
2022-07-29T04:16:26.392Z,1014.70
2022-07-29T04:16:54.571Z,1014.70
2022-07-29T04:17:25.552Z,1014.70
2022-07-29T04:17:56.793Z,1014.70
2022-07-29T04:18:27.913Z,1014.59
2022-07-29T04:18:58.605Z,1014.59
2022-07-29T04:19:29.779Z,1014.80
2022-07-29T04:20:00.772Z,1014.80
2022-07-29T04:20:31.126Z,1014.80
2022-07-29T04:21:08.313Z,1014.80
2022-07-29T04:21:36.411Z,1014.90
2022-07-29T04:22:04.954Z,1014.90
2022-07-29T04:22:36.611Z,1014.90
2022-07-29T04:23:06.504Z,1014.90
2022-07-29T04:23:47.605Z,1014.80
2022-07-29T04:24:08.366Z,1014.80
2022-07-29T04:24:43.999Z,1015.00
2022-07-29T04:25:11.327Z,1015.00
2022-07-29T04:25:44.592Z,1014.80
2022-07-29T04:26:12.632Z,1014.80
2022-07-29T04:26:43.326Z,1014.80
2022-07-29T04:27:15.090Z,1014.80
2022-07-29T04:27:45.613Z,1014.59
2022-07-29T04:28:17.062Z,1014.59
2022-07-29T04:28:47.687Z,1015.00
2022-07-29T04:29:20.523Z,1014.80
2022-07-29T04:29:56.681Z,1014.80
2022-07-29T04:30:21.793Z,1014.49
2022-07-29T04:30:51.819Z,1014.49
2022-07-29T04:31:25.757Z,1014.80
2022-07-29T04:31:53.713Z,1014.80
2022-07-29T04:32:24.641Z,1014.90
2022-07-29T04:32:56.002Z,1014.90
2022-07-29T04:33:27.155Z,1015.00
2022-07-29T04:34:00.224Z,1015.00
2022-07-29T04:34:30.973Z,1015.00
2022-07-29T04:34:59.774Z,1015.00
2022-07-29T04:35:30.574Z,1014.80
2022-07-29T04:36:01.904Z,1014.80
2022-07-29T04:36:32.595Z,1014.80
2022-07-29T04:37:03.522Z,1014.80
2022-07-29T04:37:37.371Z,1014.80
2022-07-29T04:38:05.794Z,1014.80
2022-07-29T04:38:36.913Z,1014.80
2022-07-29T04:39:07.664Z,1014.80
2022-07-29T04:39:39.442Z,1014.90
2022-07-29T04:40:10.214Z,1014.90
2022-07-29T04:40:40.672Z,1014.90
2022-07-29T04:41:11.606Z,1014.90
2022-07-29T04:41:42.664Z,1014.90
2022-07-29T04:42:13.529Z,1014.90
2022-07-29T04:42:46.765Z,1014.90
2022-07-29T04:43:15.630Z,1014.90
2022-07-29T04:43:46.716Z,1014.70
2022-07-29T04:44:21.841Z,1014.80
2022-07-29T04:44:48.892Z,1014.80
2022-07-29T04:45:25.407Z,1015.00
2022-07-29T04:45:50.496Z,1015.00
2022-07-29T04:46:25.512Z,1014.90
2022-07-29T04:46:52.572Z,1014.90
2022-07-29T04:47:26.803Z,1014.90
2022-07-29T04:47:54.504Z,1014.90
2022-07-29T04:48:30.003Z,1015.00
2022-07-29T04:48:56.309Z,1015.00
2022-07-29T04:49:28.029Z,1014.80
2022-07-29T04:49:59.532Z,1014.80
2022-07-29T04:50:30.010Z,1015.00
2022-07-29T04:51:03.511Z,1015.00
2022-07-29T04:51:31.531Z,1014.70
2022-07-29T04:52:02.610Z,1014.70
2022-07-29T04:52:34.353Z,1014.90
2022-07-29T04:53:04.721Z,1014.90
2022-07-29T04:53:36.126Z,1015.00
2022-07-29T04:54:09.052Z,1015.00
2022-07-29T04:54:37.732Z,1014.80
2022-07-29T04:55:09.520Z,1014.80
2022-07-29T04:55:40.965Z,1014.80
2022-07-29T04:56:10.216Z,1014.80
2022-07-29T04:56:44.466Z,1015.00
2022-07-29T04:57:12.192Z,1015.00
2022-07-29T04:57:43.393Z,1015.00
2022-07-29T04:58:14.205Z,1015.00
2022-07-29T04:58:46.833Z,1014.80
2022-07-29T04:59:16.765Z,1014.80
2022-07-29T04:59:47.721Z,1014.90
2022-07-29T05:00:19.883Z,1014.90
2022-07-29T05:00:49.683Z,1014.90
2022-07-29T05:01:20.732Z,1015.00
2022-07-29T05:01:52.012Z,1015.00
2022-07-29T05:02:23.122Z,1014.80
2022-07-29T05:02:53.670Z,1014.80
2022-07-29T05:03:27.521Z,1015.20
2022-07-29T05:04:00.267Z,1015.20
2022-07-29T05:04:26.655Z,1015.00
2022-07-29T05:04:57.812Z,1015.00
2022-07-29T05:05:29.573Z,1015.00
2022-07-29T05:05:59.677Z,1015.00
2022-07-29T05:06:30.267Z,1015.00
2022-07-29T05:07:01.766Z,1015.00
2022-07-29T05:07:32.886Z,1014.90
2022-07-29T05:08:03.992Z,1014.90
2022-07-29T05:08:34.768Z,1015.00
2022-07-29T05:09:05.865Z,1015.00
2022-07-29T05:09:36.645Z,1015.00
2022-07-29T05:10:08.370Z,1015.00
2022-07-29T05:10:39.154Z,1015.00
2022-07-29T05:11:12.498Z,1015.00
2022-07-29T05:11:40.505Z,1015.00
2022-07-29T05:12:11.771Z,1015.00
2022-07-29T05:12:44.810Z,1014.80
2022-07-29T05:13:13.829Z,1014.80
2022-07-29T05:13:46.981Z,1014.90
2022-07-29T05:14:16.115Z,1014.90
2022-07-29T05:14:46.832Z,1014.90
2022-07-29T05:15:18.954Z,1014.90
2022-07-29T05:15:49.990Z,1015.00
2022-07-29T05:16:19.941Z,1015.00
2022-07-29T05:16:52.194Z,1014.90
2022-07-29T05:17:21.826Z,1015.00
2022-07-29T05:17:52.744Z,1015.00
2022-07-29T05:18:26.244Z,1015.00
2022-07-29T05:18:55.033Z,1015.00
2022-07-29T05:19:25.824Z,1015.10
2022-07-29T05:19:57.041Z,1015.10
2022-07-29T05:20:28.322Z,1014.90
2022-07-29T05:21:01.969Z,1014.90
2022-07-29T05:21:29.925Z,1015.10
2022-07-29T05:22:01.032Z,1015.10
2022-07-29T05:22:31.464Z,1015.10
2022-07-29T05:23:02.847Z,1015.10
2022-07-29T05:23:33.844Z,1015.00
2022-07-29T05:24:04.984Z,1015.00
2022-07-29T05:24:35.511Z,1015.20
2022-07-29T05:25:09.137Z,1015.20
2022-07-29T05:25:43.671Z,1015.31
2022-07-29T05:26:08.853Z,1015.31
2022-07-29T05:26:39.605Z,1015.31
2022-07-29T05:27:10.625Z,1015.31
2022-07-29T05:27:44.482Z,1015.10
2022-07-29T05:28:12.694Z,1015.10
2022-07-29T05:28:44.032Z,1015.31
2022-07-29T05:29:44.664Z,1015.31
2022-07-29T05:30:19.963Z,1015.31
2022-07-29T05:30:47.925Z,1015.10
2022-07-29T05:31:19.589Z,1015.10
2022-07-29T05:31:49.801Z,1015.20
2022-07-29T05:32:23.604Z,1015.31
2022-07-29T05:32:51.897Z,1015.31
2022-07-29T05:33:35.487Z,1015.41
2022-07-29T05:33:53.764Z,1015.41
2022-07-29T05:34:24.931Z,1015.51
2022-07-29T05:34:56.144Z,1015.51
2022-07-29T05:35:28.003Z,1015.20
2022-07-29T05:36:00.869Z,1015.20
2022-07-29T05:36:29.172Z,1015.31
2022-07-29T05:37:00.122Z,1015.31
2022-07-29T05:37:31.045Z,1015.41
2022-07-29T05:38:02.371Z,1015.41
2022-07-29T05:38:32.486Z,1015.00
2022-07-29T05:39:03.930Z,1015.00
2022-07-29T05:39:46.989Z,1015.20
2022-07-29T05:40:05.800Z,1015.20
2022-07-29T05:40:37.145Z,1015.10
2022-07-29T05:41:10.809Z,1015.10
2022-07-29T05:41:39.393Z,1015.20
2022-07-29T05:42:10.113Z,1015.20
2022-07-29T05:42:41.240Z,1015.20
2022-07-29T05:43:11.992Z,1015.20
2022-07-29T05:43:42.727Z,1015.20
2022-07-29T05:44:17.116Z,1015.20
2022-07-29T05:44:48.080Z,1015.20
2022-07-29T05:45:16.600Z,1015.20
2022-07-29T05:45:49.909Z,1015.10
2022-07-29T05:46:18.093Z,1015.10
2022-07-29T05:46:49.535Z,1015.31
2022-07-29T05:47:22.352Z,1015.31
2022-07-29T05:47:50.545Z,1015.31
2022-07-29T05:48:23.400Z,1015.41
2022-07-29T05:48:53.177Z,1015.41
2022-07-29T05:49:27.284Z,1015.31
2022-07-29T05:49:57.925Z,1015.31
2022-07-29T05:50:26.812Z,1015.31
2022-07-29T05:50:57.126Z,1015.31
2022-07-29T05:51:28.065Z,1015.20
2022-07-29T05:51:58.811Z,1015.20
2022-07-29T05:52:30.325Z,1015.31
2022-07-29T05:53:00.840Z,1015.31
2022-07-29T05:53:32.002Z,1015.20
2022-07-29T05:54:04.091Z,1015.20
2022-07-29T05:54:33.960Z,1015.20
2022-07-29T05:55:05.364Z,1015.20
2022-07-29T05:55:36.188Z,1015.20
2022-07-29T05:56:06.552Z,1015.20
2022-07-29T05:56:38.724Z,1015.31
2022-07-29T05:57:09.258Z,1015.31
2022-07-29T05:57:40.289Z,1015.41
2022-07-29T05:58:11.324Z,1015.41
2022-07-29T05:58:42.408Z,1015.31
2022-07-29T05:59:18.010Z,1015.31
2022-07-29T05:59:43.912Z,1015.31
2022-07-29T06:00:15.436Z,1015.31
2022-07-29T06:00:46.003Z,1015.31
2022-07-29T06:01:16.906Z,1015.31
2022-07-29T06:01:51.134Z,1015.31
2022-07-29T06:02:19.857Z,1015.31
2022-07-29T06:02:55.905Z,1015.41
2022-07-29T06:03:23.747Z,1015.20
2022-07-29T06:03:52.009Z,1015.20
2022-07-29T06:04:23.203Z,1015.20
2022-07-29T06:04:54.155Z,1015.20
2022-07-29T06:05:25.766Z,1015.61
2022-07-29T06:05:55.562Z,1015.61
2022-07-29T06:06:27.154Z,1015.41
2022-07-29T06:06:58.286Z,1015.41
2022-07-29T06:07:31.847Z,1015.61
2022-07-29T06:07:59.993Z,1015.61
2022-07-29T06:08:31.234Z,1015.20
2022-07-29T06:09:12.314Z,1015.20
2022-07-29T06:09:36.037Z,1015.51
2022-07-29T06:10:03.800Z,1015.51
2022-07-29T06:10:35.846Z,1015.51
2022-07-29T06:11:05.997Z,1015.51
2022-07-29T06:11:38.067Z,1015.61
2022-07-29T06:12:08.353Z,1015.61
2022-07-29T06:12:39.241Z,1015.41
2022-07-29T06:13:10.413Z,1015.41
2022-07-29T06:13:40.927Z,1015.51
2022-07-29T06:14:12.206Z,1015.51
2022-07-29T06:14:43.359Z,1015.41
2022-07-29T06:15:14.914Z,1015.41
2022-07-29T06:15:44.648Z,1015.61